Meath Environmental Platform

Observations for Trim Market St

Time AQI Temp °C Hum % Pres Pa CO μg/m³ H₂S μg/m³ NO μg/m³ NO₂ μg/m³ O₃ μg/m³ SO₂ μg/m³ PM1 μg/m³ PM2.5 μg/m³ PM10 μg/m³
Wednesday 8 July 2026
17:40 1 36.4 31 66,760 0 34.69 0 59.39 0 3.38 4.28 8.66 10.09
17:39 1 36.5 31 66,782 0 32.79 0 22.29 10.06 3.64 4.99 8.68 10.1
17:33 1 37.1 30 66,817 0 18.07 0 8.42 18.99 4.97 5.7 9.27 10.98
17:32 1 37.2 30 66,823 0 25.26 0 12.81 20.55 4.8 3.56 7.1 7.52
17:31 1 37.3 30 66,855 0 21.33 0 18.8 4.05 4.03 4.99 8.2 9.25
17:29 1 37.5 30 66,876 0 16.87 0 4.47 23.19 5.42 3.56 7.12 8.39
17:28 1 37.7 30 66,890 0 12.62 0 9.83 14.03 4.32 3.56 8.21 9.26
17:27 1 37.8 30 66,876 0 11.28 0 9.51 6.55 4.09 4.99 8.76 10.12
17:26 1 37.9 30 66,888 0 16.18 0 6.69 19.73 5.35 3.56 7.13 7.52
17:25 1 38 29 66,900 0 18.04 0 9.98 19.24 5.33 3.56 8.23 9.26
17:22 1 38.4 29 66,932 0 18.37 0 9.71 10.24 5.52 4.28 8.79 10.13
17:21 1 38.5 29 66,955 0 22.81 0 17.21 8.44 4.52 3.56 7.17 8.4
17:15 1 39.4 28 67,078 0 8.68 0 28.61 0 2.72 4.99 7.78 8.4
17:12 1 39.8 27 67,096 0 0 0 0 23.36 6.1 4.28 9.48 11.06
17:08 1 40.3 26 67,135 0 0 0 7.54 0 3.87 5.7 9.51 11.07
17:07 1 40.3 26 67,132 0 0 0 17.02 0 1.84 4.28 7.85 8.41
17:02 1 40.3 27 67,110 0 0 0 2.36 1.93 4.82 5.7 10.02 11.94
17:01 1 40.2 27 67,094 0 0 0 11.35 0 3.52 3.56 8.36 9.29
17:00 1 40 27 67,104 0 0 0 6.48 0 4.6 4.99 9.44 11.05
16:59 1 39.9 27 67,086 0 0 0 19.02 0 2.74 5.7 8.9 10.17